sensor_id;sensor_type;location;lat;lon;timestamp;P1;durP1;ratioP1;P2;durP2;ratioP2
13343;SDS011;6741;48.964;9.406;2023-04-25T00:01:06;5.43;;;4.27;;
13343;SDS011;6741;48.964;9.406;2023-04-25T00:03:35;3.97;;;3.57;;
13343;SDS011;6741;48.964;9.406;2023-04-25T00:06:03;4.97;;;3.67;;
13343;SDS011;6741;48.964;9.406;2023-04-25T00:08:30;4.17;;;3.70;;
13343;SDS011;6741;48.964;9.406;2023-04-25T00:10:57;5.07;;;4.53;;
13343;SDS011;6741;48.964;9.406;2023-04-25T00:13:24;4.37;;;3.97;;
13343;SDS011;6741;48.964;9.406;2023-04-25T00:15:51;5.00;;;3.93;;
13343;SDS011;6741;48.964;9.406;2023-04-25T00:18:18;3.73;;;3.40;;
13343;SDS011;6741;48.964;9.406;2023-04-25T00:20:47;4.27;;;3.50;;
13343;SDS011;6741;48.964;9.406;2023-04-25T00:23:14;4.37;;;3.57;;
13343;SDS011;6741;48.964;9.406;2023-04-25T00:25:43;4.40;;;3.50;;
13343;SDS011;6741;48.964;9.406;2023-04-25T00:28:10;3.70;;;3.40;;
13343;SDS011;6741;48.964;9.406;2023-04-25T00:30:37;4.10;;;3.70;;
13343;SDS011;6741;48.964;9.406;2023-04-25T00:33:04;4.07;;;3.50;;
13343;SDS011;6741;48.964;9.406;2023-04-25T00:35:31;4.87;;;3.47;;
13343;SDS011;6741;48.964;9.406;2023-04-25T00:38:00;4.27;;;3.87;;
13343;SDS011;6741;48.964;9.406;2023-04-25T00:40:27;4.07;;;3.63;;
13343;SDS011;6741;48.964;9.406;2023-04-25T00:42:54;4.60;;;4.20;;
13343;SDS011;6741;48.964;9.406;2023-04-25T00:45:21;5.00;;;4.50;;
13343;SDS011;6741;48.964;9.406;2023-04-25T00:47:50;5.47;;;4.37;;
13343;SDS011;6741;48.964;9.406;2023-04-25T00:50:17;4.17;;;3.77;;
13343;SDS011;6741;48.964;9.406;2023-04-25T00:52:44;4.67;;;4.23;;
13343;SDS011;6741;48.964;9.406;2023-04-25T00:55:12;3.63;;;3.33;;
13343;SDS011;6741;48.964;9.406;2023-04-25T00:57:40;4.43;;;3.97;;
13343;SDS011;6741;48.964;9.406;2023-04-25T01:00:09;4.03;;;3.73;;
13343;SDS011;6741;48.964;9.406;2023-04-25T01:02:36;4.77;;;4.20;;
13343;SDS011;6741;48.964;9.406;2023-04-25T01:05:04;5.93;;;3.97;;
13343;SDS011;6741;48.964;9.406;2023-04-25T01:07:31;5.60;;;4.17;;
13343;SDS011;6741;48.964;9.406;2023-04-25T01:09:58;4.60;;;4.13;;
13343;SDS011;6741;48.964;9.406;2023-04-25T01:12:26;4.93;;;4.10;;
13343;SDS011;6741;48.964;9.406;2023-04-25T01:14:53;4.33;;;3.93;;
13343;SDS011;6741;48.964;9.406;2023-04-25T01:17:21;4.97;;;4.47;;
13343;SDS011;6741;48.964;9.406;2023-04-25T01:19:48;4.77;;;4.37;;
13343;SDS011;6741;48.964;9.406;2023-04-25T01:22:17;4.27;;;3.87;;
13343;SDS011;6741;48.964;9.406;2023-04-25T01:24:45;4.30;;;3.90;;
13343;SDS011;6741;48.964;9.406;2023-04-25T01:27:13;4.53;;;4.13;;
13343;SDS011;6741;48.964;9.406;2023-04-25T01:29:40;5.07;;;3.93;;
13343;SDS011;6741;48.964;9.406;2023-04-25T01:32:07;4.20;;;3.80;;
13343;SDS011;6741;48.964;9.406;2023-04-25T01:34:35;4.53;;;4.00;;
13343;SDS011;6741;48.964;9.406;2023-04-25T01:37:02;6.30;;;4.13;;
13343;SDS011;6741;48.964;9.406;2023-04-25T01:39:31;3.70;;;3.40;;
13343;SDS011;6741;48.964;9.406;2023-04-25T01:41:58;4.40;;;3.83;;
13343;SDS011;6741;48.964;9.406;2023-04-25T01:44:26;4.83;;;4.20;;
13343;SDS011;6741;48.964;9.406;2023-04-25T01:46:54;4.97;;;4.53;;
13343;SDS011;6741;48.964;9.406;2023-04-25T01:49:21;6.33;;;4.53;;
13343;SDS011;6741;48.964;9.406;2023-04-25T01:51:48;4.87;;;4.43;;
13343;SDS011;6741;48.964;9.406;2023-04-25T01:54:15;4.97;;;4.57;;
13343;SDS011;6741;48.964;9.406;2023-04-25T01:56:49;4.97;;;4.47;;
13343;SDS011;6741;48.964;9.406;2023-04-25T01:59:17;5.83;;;5.20;;
13343;SDS011;6741;48.964;9.406;2023-04-25T02:01:45;5.27;;;4.77;;
13343;SDS011;6741;48.964;9.406;2023-04-25T02:04:12;5.80;;;5.30;;
13343;SDS011;6741;48.964;9.406;2023-04-25T02:06:39;5.70;;;5.10;;
13343;SDS011;6741;48.964;9.406;2023-04-25T02:09:06;6.93;;;5.20;;
13343;SDS011;6741;48.964;9.406;2023-04-25T02:11:33;6.37;;;5.20;;
13343;SDS011;6741;48.964;9.406;2023-04-25T02:14:01;5.33;;;4.57;;
13343;SDS011;6741;48.964;9.406;2023-04-25T02:16:28;6.00;;;5.40;;
13343;SDS011;6741;48.964;9.406;2023-04-25T02:18:55;6.00;;;5.40;;
13343;SDS011;6741;48.964;9.406;2023-04-25T02:21:22;6.50;;;5.83;;
13343;SDS011;6741;48.964;9.406;2023-04-25T02:23:49;7.10;;;5.43;;
13343;SDS011;6741;48.964;9.406;2023-04-25T02:26:17;6.00;;;5.40;;
13343;SDS011;6741;48.964;9.406;2023-04-25T02:28:43;6.83;;;5.93;;
13343;SDS011;6741;48.964;9.406;2023-04-25T02:31:12;6.00;;;5.50;;
13343;SDS011;6741;48.964;9.406;2023-04-25T02:33:39;6.87;;;6.20;;
13343;SDS011;6741;48.964;9.406;2023-04-25T02:36:06;6.67;;;5.97;;
13343;SDS011;6741;48.964;9.406;2023-04-25T02:38:33;6.47;;;5.83;;
13343;SDS011;6741;48.964;9.406;2023-04-25T02:41:00;6.50;;;5.80;;
13343;SDS011;6741;48.964;9.406;2023-04-25T02:43:27;7.30;;;5.80;;
13343;SDS011;6741;48.964;9.406;2023-04-25T02:45:54;5.70;;;5.20;;
13343;SDS011;6741;48.964;9.406;2023-04-25T02:48:23;6.57;;;5.87;;
13343;SDS011;6741;48.964;9.406;2023-04-25T02:50:49;5.70;;;5.13;;
13343;SDS011;6741;48.964;9.406;2023-04-25T02:53:16;6.13;;;5.53;;
13343;SDS011;6741;48.964;9.406;2023-04-25T02:55:43;6.50;;;5.80;;
13343;SDS011;6741;48.964;9.406;2023-04-25T02:58:10;6.67;;;4.97;;
13343;SDS011;6741;48.964;9.406;2023-04-25T03:00:37;5.93;;;5.43;;
13343;SDS011;6741;48.964;9.406;2023-04-25T03:03:04;6.63;;;6.00;;
13343;SDS011;6741;48.964;9.406;2023-04-25T03:05:32;6.83;;;6.13;;
13343;SDS011;6741;48.964;9.406;2023-04-25T03:07:59;6.40;;;5.50;;
13343;SDS011;6741;48.964;9.406;2023-04-25T03:10:26;7.43;;;6.17;;
13343;SDS011;6741;48.964;9.406;2023-04-25T03:12:53;7.03;;;5.47;;
13343;SDS011;6741;48.964;9.406;2023-04-25T03:15:20;7.53;;;6.73;;
13343;SDS011;6741;48.964;9.406;2023-04-25T03:17:47;7.10;;;6.40;;
13343;SDS011;6741;48.964;9.406;2023-04-25T03:20:14;6.10;;;5.50;;
13343;SDS011;6741;48.964;9.406;2023-04-25T03:22:42;7.17;;;5.43;;
13343;SDS011;6741;48.964;9.406;2023-04-25T03:25:09;5.87;;;5.33;;
13343;SDS011;6741;48.964;9.406;2023-04-25T03:27:36;6.23;;;5.37;;
13343;SDS011;6741;48.964;9.406;2023-04-25T03:30:03;5.20;;;4.70;;
13343;SDS011;6741;48.964;9.406;2023-04-25T03:32:31;7.47;;;6.77;;
13343;SDS011;6741;48.964;9.406;2023-04-25T03:34:58;6.63;;;5.70;;
13343;SDS011;6741;48.964;9.406;2023-04-25T03:37:25;6.77;;;6.17;;
13343;SDS011;6741;48.964;9.406;2023-04-25T03:39:53;8.97;;;6.30;;
13343;SDS011;6741;48.964;9.406;2023-04-25T03:42:20;6.93;;;6.20;;
13343;SDS011;6741;48.964;9.406;2023-04-25T03:44:48;6.13;;;5.53;;
13343;SDS011;6741;48.964;9.406;2023-04-25T03:47:15;8.13;;;6.00;;
13343;SDS011;6741;48.964;9.406;2023-04-25T03:49:42;6.87;;;6.03;;
13343;SDS011;6741;48.964;9.406;2023-04-25T03:52:09;6.13;;;5.27;;
13343;SDS011;6741;48.964;9.406;2023-04-25T03:54:36;7.00;;;6.30;;
13343;SDS011;6741;48.964;9.406;2023-04-25T03:57:04;8.13;;;6.40;;
13343;SDS011;6741;48.964;9.406;2023-04-25T03:59:31;6.90;;;6.20;;
13343;SDS011;6741;48.964;9.406;2023-04-25T04:01:58;6.27;;;5.63;;
13343;SDS011;6741;48.964;9.406;2023-04-25T04:04:25;7.23;;;6.53;;
13343;SDS011;6741;48.964;9.406;2023-04-25T04:06:52;7.47;;;6.53;;
13343;SDS011;6741;48.964;9.406;2023-04-25T04:09:19;7.13;;;6.43;;
13343;SDS011;6741;48.964;9.406;2023-04-25T04:11:46;6.97;;;6.27;;
13343;SDS011;6741;48.964;9.406;2023-04-25T04:14:14;7.40;;;6.63;;
13343;SDS011;6741;48.964;9.406;2023-04-25T04:16:41;8.43;;;7.10;;
13343;SDS011;6741;48.964;9.406;2023-04-25T04:19:08;9.73;;;8.60;;
13343;SDS011;6741;48.964;9.406;2023-04-25T04:21:35;9.30;;;8.30;;
13343;SDS011;6741;48.964;9.406;2023-04-25T04:24:02;10.10;;;8.57;;
13343;SDS011;6741;48.964;9.406;2023-04-25T04:26:31;7.17;;;6.47;;
13343;SDS011;6741;48.964;9.406;2023-04-25T04:29:00;8.27;;;7.00;;
13343;SDS011;6741;48.964;9.406;2023-04-25T04:31:31;7.90;;;6.97;;
13343;SDS011;6741;48.964;9.406;2023-04-25T04:33:58;7.50;;;6.27;;
13343;SDS011;6741;48.964;9.406;2023-04-25T04:36:26;7.57;;;6.87;;
13343;SDS011;6741;48.964;9.406;2023-04-25T04:38:53;7.27;;;6.50;;
13343;SDS011;6741;48.964;9.406;2023-04-25T04:41:21;8.07;;;7.00;;
13343;SDS011;6741;48.964;9.406;2023-04-25T04:43:49;8.20;;;7.40;;
13343;SDS011;6741;48.964;9.406;2023-04-25T04:46:18;8.10;;;6.80;;
13343;SDS011;6741;48.964;9.406;2023-04-25T04:48:46;10.43;;;7.83;;
13343;SDS011;6741;48.964;9.406;2023-04-25T04:51:13;10.67;;;7.33;;
13343;SDS011;6741;48.964;9.406;2023-04-25T04:53:42;9.23;;;7.00;;
13343;SDS011;6741;48.964;9.406;2023-04-25T04:56:09;8.50;;;7.57;;
13343;SDS011;6741;48.964;9.406;2023-04-25T04:58:36;7.60;;;6.80;;
13343;SDS011;6741;48.964;9.406;2023-04-25T05:01:04;9.77;;;6.90;;
13343;SDS011;6741;48.964;9.406;2023-04-25T05:03:32;7.50;;;6.73;;
13343;SDS011;6741;48.964;9.406;2023-04-25T05:06:00;10.43;;;7.20;;
13343;SDS011;6741;48.964;9.406;2023-04-25T05:08:27;8.00;;;7.13;;
13343;SDS011;6741;48.964;9.406;2023-04-25T05:10:54;7.63;;;6.83;;
13343;SDS011;6741;48.964;9.406;2023-04-25T05:13:21;8.03;;;7.23;;
13343;SDS011;6741;48.964;9.406;2023-04-25T05:15:48;8.50;;;6.90;;
13343;SDS011;6741;48.964;9.406;2023-04-25T05:18:16;8.20;;;7.40;;
13343;SDS011;6741;48.964;9.406;2023-04-25T05:20:43;8.53;;;6.87;;
13343;SDS011;6741;48.964;9.406;2023-04-25T05:23:11;7.10;;;6.40;;
13343;SDS011;6741;48.964;9.406;2023-04-25T05:25:38;8.73;;;6.83;;
13343;SDS011;6741;48.964;9.406;2023-04-25T05:28:05;7.70;;;6.77;;
13343;SDS011;6741;48.964;9.406;2023-04-25T05:30:32;7.97;;;6.53;;
13343;SDS011;6741;48.964;9.406;2023-04-25T05:33:00;10.67;;;7.30;;
13343;SDS011;6741;48.964;9.406;2023-04-25T05:35:27;8.17;;;7.37;;
13343;SDS011;6741;48.964;9.406;2023-04-25T05:37:54;7.73;;;6.77;;
13343;SDS011;6741;48.964;9.406;2023-04-25T05:40:22;7.60;;;6.77;;
13343;SDS011;6741;48.964;9.406;2023-04-25T05:42:49;7.67;;;6.80;;
13343;SDS011;6741;48.964;9.406;2023-04-25T05:45:16;7.20;;;6.50;;
13343;SDS011;6741;48.964;9.406;2023-04-25T05:47:43;7.70;;;6.53;;
13343;SDS011;6741;48.964;9.406;2023-04-25T05:50:10;7.63;;;6.83;;
13343;SDS011;6741;48.964;9.406;2023-04-25T05:52:37;6.67;;;5.97;;
13343;SDS011;6741;48.964;9.406;2023-04-25T05:55:04;8.33;;;7.33;;
13343;SDS011;6741;48.964;9.406;2023-04-25T05:57:33;7.97;;;6.83;;
13343;SDS011;6741;48.964;9.406;2023-04-25T06:00:00;9.33;;;6.80;;
13343;SDS011;6741;48.964;9.406;2023-04-25T06:02:29;9.37;;;6.63;;
13343;SDS011;6741;48.964;9.406;2023-04-25T06:04:56;7.63;;;6.47;;
13343;SDS011;6741;48.964;9.406;2023-04-25T06:07:23;8.23;;;6.87;;
13343;SDS011;6741;48.964;9.406;2023-04-25T06:09:50;9.13;;;6.70;;
13343;SDS011;6741;48.964;9.406;2023-04-25T06:12:17;10.47;;;8.20;;
13343;SDS011;6741;48.964;9.406;2023-04-25T06:14:45;6.97;;;6.13;;
13343;SDS011;6741;48.964;9.406;2023-04-25T06:17:12;7.57;;;5.80;;
13343;SDS011;6741;48.964;9.406;2023-04-25T06:19:39;6.47;;;5.83;;
13343;SDS011;6741;48.964;9.406;2023-04-25T06:22:06;8.03;;;6.50;;
13343;SDS011;6741;48.964;9.406;2023-04-25T06:24:33;7.70;;;6.77;;
13343;SDS011;6741;48.964;9.406;2023-04-25T06:27:00;7.57;;;6.77;;
13343;SDS011;6741;48.964;9.406;2023-04-25T06:29:27;7.17;;;6.47;;
13343;SDS011;6741;48.964;9.406;2023-04-25T06:31:56;7.37;;;6.57;;
13343;SDS011;6741;48.964;9.406;2023-04-25T06:34:23;7.37;;;6.53;;
13343;SDS011;6741;48.964;9.406;2023-04-25T06:36:50;7.17;;;6.30;;
13343;SDS011;6741;48.964;9.406;2023-04-25T06:39:17;7.33;;;5.87;;
13343;SDS011;6741;48.964;9.406;2023-04-25T06:41:45;6.57;;;5.93;;
13343;SDS011;6741;48.964;9.406;2023-04-25T06:44:12;6.27;;;5.47;;
13343;SDS011;6741;48.964;9.406;2023-04-25T06:46:38;6.27;;;5.67;;
13343;SDS011;6741;48.964;9.406;2023-04-25T06:49:07;5.33;;;4.70;;
13343;SDS011;6741;48.964;9.406;2023-04-25T06:51:34;6.70;;;6.00;;
13343;SDS011;6741;48.964;9.406;2023-04-25T06:54:00;5.77;;;5.17;;
13343;SDS011;6741;48.964;9.406;2023-04-25T06:56:29;7.07;;;5.67;;
13343;SDS011;6741;48.964;9.406;2023-04-25T06:58:56;4.73;;;4.23;;
13343;SDS011;6741;48.964;9.406;2023-04-25T07:01:23;5.20;;;4.63;;
13343;SDS011;6741;48.964;9.406;2023-04-25T07:03:50;6.33;;;4.80;;
13343;SDS011;6741;48.964;9.406;2023-04-25T07:06:18;5.23;;;4.73;;
13343;SDS011;6741;48.964;9.406;2023-04-25T07:08:45;5.97;;;5.07;;
13343;SDS011;6741;48.964;9.406;2023-04-25T07:11:12;5.70;;;5.00;;
13343;SDS011;6741;48.964;9.406;2023-04-25T07:13:39;6.63;;;5.87;;
13343;SDS011;6741;48.964;9.406;2023-04-25T07:16:06;16.60;;;13.23;;
13343;SDS011;6741;48.964;9.406;2023-04-25T07:18:33;7.93;;;6.43;;
13343;SDS011;6741;48.964;9.406;2023-04-25T07:20:59;10.77;;;8.30;;
13343;SDS011;6741;48.964;9.406;2023-04-25T07:23:28;9.27;;;7.43;;
13343;SDS011;6741;48.964;9.406;2023-04-25T07:25:55;5.07;;;4.57;;
13343;SDS011;6741;48.964;9.406;2023-04-25T07:28:22;4.83;;;4.07;;
13343;SDS011;6741;48.964;9.406;2023-04-25T07:30:49;5.20;;;4.67;;
13343;SDS011;6741;48.964;9.406;2023-04-25T07:33:16;4.20;;;3.80;;
13343;SDS011;6741;48.964;9.406;2023-04-25T07:35:45;4.97;;;4.47;;
13343;SDS011;6741;48.964;9.406;2023-04-25T07:38:12;5.30;;;4.23;;
13343;SDS011;6741;48.964;9.406;2023-04-25T07:40:40;5.13;;;4.60;;
13343;SDS011;6741;48.964;9.406;2023-04-25T07:43:07;5.73;;;5.17;;
13343;SDS011;6741;48.964;9.406;2023-04-25T07:45:34;5.10;;;4.60;;
13343;SDS011;6741;48.964;9.406;2023-04-25T07:48:01;5.23;;;4.73;;
13343;SDS011;6741;48.964;9.406;2023-04-25T07:50:28;6.57;;;4.80;;
13343;SDS011;6741;48.964;9.406;2023-04-25T07:52:55;5.10;;;4.60;;
13343;SDS011;6741;48.964;9.406;2023-04-25T07:55:22;5.93;;;5.10;;
13343;SDS011;6741;48.964;9.406;2023-04-25T07:57:50;5.73;;;5.13;;
13343;SDS011;6741;48.964;9.406;2023-04-25T08:00:17;6.07;;;5.57;;
13343;SDS011;6741;48.964;9.406;2023-04-25T08:02:45;8.83;;;7.53;;
13343;SDS011;6741;48.964;9.406;2023-04-25T08:05:12;7.00;;;6.33;;
13343;SDS011;6741;48.964;9.406;2023-04-25T08:07:40;7.10;;;6.40;;
13343;SDS011;6741;48.964;9.406;2023-04-25T08:10:07;6.40;;;5.80;;
13343;SDS011;6741;48.964;9.406;2023-04-25T08:12:34;7.23;;;6.50;;
13343;SDS011;6741;48.964;9.406;2023-04-25T08:15:03;8.60;;;7.17;;
13343;SDS011;6741;48.964;9.406;2023-04-25T08:17:31;7.73;;;6.40;;
13343;SDS011;6741;48.964;9.406;2023-04-25T08:19:58;7.30;;;6.60;;
13343;SDS011;6741;48.964;9.406;2023-04-25T08:22:25;6.20;;;5.50;;
13343;SDS011;6741;48.964;9.406;2023-04-25T08:24:52;6.63;;;6.00;;
13343;SDS011;6741;48.964;9.406;2023-04-25T08:27:19;7.67;;;6.87;;
13343;SDS011;6741;48.964;9.406;2023-04-25T08:29:46;8.17;;;6.60;;
13343;SDS011;6741;48.964;9.406;2023-04-25T08:32:15;7.47;;;6.40;;
13343;SDS011;6741;48.964;9.406;2023-04-25T08:34:42;7.80;;;6.53;;
13343;SDS011;6741;48.964;9.406;2023-04-25T08:37:09;8.40;;;6.60;;
13343;SDS011;6741;48.964;9.406;2023-04-25T08:39:36;6.67;;;6.00;;
13343;SDS011;6741;48.964;9.406;2023-04-25T08:42:05;6.73;;;6.03;;
13343;SDS011;6741;48.964;9.406;2023-04-25T08:44:33;7.23;;;6.53;;
13343;SDS011;6741;48.964;9.406;2023-04-25T08:47:01;6.17;;;5.37;;
13343;SDS011;6741;48.964;9.406;2023-04-25T08:49:31;6.23;;;5.63;;
13343;SDS011;6741;48.964;9.406;2023-04-25T08:51:59;5.70;;;5.20;;
13343;SDS011;6741;48.964;9.406;2023-04-25T08:54:27;7.40;;;5.47;;
13343;SDS011;6741;48.964;9.406;2023-04-25T08:56:56;5.93;;;5.43;;
13343;SDS011;6741;48.964;9.406;2023-04-25T08:59:23;5.80;;;5.30;;
13343;SDS011;6741;48.964;9.406;2023-04-25T09:01:50;6.03;;;5.50;;
13343;SDS011;6741;48.964;9.406;2023-04-25T09:04:17;7.87;;;6.37;;
13343;SDS011;6741;48.964;9.406;2023-04-25T09:06:46;7.63;;;6.50;;
13343;SDS011;6741;48.964;9.406;2023-04-25T09:09:13;7.70;;;6.40;;
13343;SDS011;6741;48.964;9.406;2023-04-25T09:11:40;8.17;;;6.63;;
13343;SDS011;6741;48.964;9.406;2023-04-25T09:14:11;6.77;;;6.17;;
13343;SDS011;6741;48.964;9.406;2023-04-25T09:16:58;6.10;;;5.50;;
13343;SDS011;6741;48.964;9.406;2023-04-25T09:19:26;6.50;;;5.90;;
13343;SDS011;6741;48.964;9.406;2023-04-25T09:21:57;6.67;;;6.07;;
13343;SDS011;6741;48.964;9.406;2023-04-25T09:24:35;8.23;;;7.40;;
13343;SDS011;6741;48.964;9.406;2023-04-25T09:27:03;7.50;;;6.53;;
13343;SDS011;6741;48.964;9.406;2023-04-25T09:29:31;6.83;;;6.23;;
13343;SDS011;6741;48.964;9.406;2023-04-25T09:32:12;6.83;;;6.23;;
13343;SDS011;6741;48.964;9.406;2023-04-25T09:34:44;7.63;;;6.60;;
13343;SDS011;6741;48.964;9.406;2023-04-25T09:37:18;8.93;;;8.13;;
13343;SDS011;6741;48.964;9.406;2023-04-25T09:39:46;8.57;;;7.73;;
13343;SDS011;6741;48.964;9.406;2023-04-25T09:42:14;7.20;;;6.43;;
13343;SDS011;6741;48.964;9.406;2023-04-25T09:44:42;7.17;;;6.47;;
13343;SDS011;6741;48.964;9.406;2023-04-25T09:47:10;7.80;;;6.50;;
13343;SDS011;6741;48.964;9.406;2023-04-25T09:49:39;8.00;;;6.20;;
13343;SDS011;6741;48.964;9.406;2023-04-25T09:52:08;6.77;;;6.20;;
13343;SDS011;6741;48.964;9.406;2023-04-25T09:54:40;6.83;;;6.23;;
13343;SDS011;6741;48.964;9.406;2023-04-25T09:57:10;7.63;;;6.93;;
13343;SDS011;6741;48.964;9.406;2023-04-25T09:59:38;8.00;;;6.57;;
13343;SDS011;6741;48.964;9.406;2023-04-25T10:02:09;7.40;;;6.70;;
13343;SDS011;6741;48.964;9.406;2023-04-25T10:04:38;7.40;;;6.70;;
13343;SDS011;6741;48.964;9.406;2023-04-25T10:07:06;8.67;;;7.07;;
13343;SDS011;6741;48.964;9.406;2023-04-25T10:09:35;8.50;;;7.70;;
13343;SDS011;6741;48.964;9.406;2023-04-25T10:12:07;9.77;;;8.77;;
13343;SDS011;6741;48.964;9.406;2023-04-25T10:14:35;9.60;;;8.63;;
13343;SDS011;6741;48.964;9.406;2023-04-25T10:17:02;10.20;;;9.20;;
13343;SDS011;6741;48.964;9.406;2023-04-25T10:19:30;16.20;;;12.43;;
13343;SDS011;6741;48.964;9.406;2023-04-25T10:22:00;6.17;;;5.57;;
13343;SDS011;6741;48.964;9.406;2023-04-25T10:24:33;5.70;;;4.67;;
13343;SDS011;6741;48.964;9.406;2023-04-25T10:27:04;5.47;;;4.97;;
13343;SDS011;6741;48.964;9.406;2023-04-25T10:29:35;5.57;;;5.07;;
13343;SDS011;6741;48.964;9.406;2023-04-25T10:32:02;5.73;;;5.13;;
13343;SDS011;6741;48.964;9.406;2023-04-25T10:34:38;5.67;;;4.73;;
13343;SDS011;6741;48.964;9.406;2023-04-25T10:37:10;6.10;;;5.50;;
13343;SDS011;6741;48.964;9.406;2023-04-25T10:39:39;5.80;;;5.27;;
13343;SDS011;6741;48.964;9.406;2023-04-25T10:42:09;8.20;;;5.67;;
13343;SDS011;6741;48.964;9.406;2023-04-25T10:44:37;6.80;;;5.70;;
13343;SDS011;6741;48.964;9.406;2023-04-25T10:47:06;6.13;;;5.53;;
13343;SDS011;6741;48.964;9.406;2023-04-25T10:49:34;6.87;;;5.83;;
13343;SDS011;6741;48.964;9.406;2023-04-25T10:52:18;7.20;;;6.27;;
13343;SDS011;6741;48.964;9.406;2023-04-25T10:54:52;6.80;;;5.60;;
13343;SDS011;6741;48.964;9.406;2023-04-25T10:57:27;7.93;;;6.87;;
13343;SDS011;6741;48.964;9.406;2023-04-25T11:00:05;7.13;;;5.60;;
13343;SDS011;6741;48.964;9.406;2023-04-25T11:02:42;5.70;;;5.10;;
13343;SDS011;6741;48.964;9.406;2023-04-25T11:05:15;8.07;;;5.90;;
13343;SDS011;6741;48.964;9.406;2023-04-25T11:07:49;7.80;;;6.37;;
13343;SDS011;6741;48.964;9.406;2023-04-25T11:10:17;9.47;;;7.07;;
13343;SDS011;6741;48.964;9.406;2023-04-25T11:12:46;8.30;;;7.10;;
13343;SDS011;6741;48.964;9.406;2023-04-25T11:15:13;8.97;;;7.07;;
13343;SDS011;6741;48.964;9.406;2023-04-25T11:17:40;10.90;;;7.03;;
13343;SDS011;6741;48.964;9.406;2023-04-25T11:20:10;8.40;;;6.67;;
13343;SDS011;6741;48.964;9.406;2023-04-25T11:22:40;7.63;;;6.17;;
13343;SDS011;6741;48.964;9.406;2023-04-25T11:25:08;8.30;;;6.50;;
13343;SDS011;6741;48.964;9.406;2023-04-25T11:27:39;10.13;;;6.20;;
13343;SDS011;6741;48.964;9.406;2023-04-25T11:30:17;8.43;;;7.43;;
13343;SDS011;6741;48.964;9.406;2023-04-25T11:32:44;7.10;;;6.40;;
13343;SDS011;6741;48.964;9.406;2023-04-25T11:35:11;8.53;;;7.03;;
13343;SDS011;6741;48.964;9.406;2023-04-25T11:37:40;8.83;;;7.10;;
13343;SDS011;6741;48.964;9.406;2023-04-25T11:40:08;9.87;;;6.70;;
13343;SDS011;6741;48.964;9.406;2023-04-25T11:42:36;9.63;;;8.47;;
13343;SDS011;6741;48.964;9.406;2023-04-25T11:45:06;8.67;;;7.47;;
13343;SDS011;6741;48.964;9.406;2023-04-25T11:47:34;9.30;;;7.57;;
13343;SDS011;6741;48.964;9.406;2023-04-25T11:50:02;9.03;;;8.03;;
13343;SDS011;6741;48.964;9.406;2023-04-25T11:52:36;8.60;;;7.70;;
13343;SDS011;6741;48.964;9.406;2023-04-25T11:55:05;9.87;;;7.50;;
13343;SDS011;6741;48.964;9.406;2023-04-25T11:57:33;8.93;;;7.27;;
13343;SDS011;6741;48.964;9.406;2023-04-25T12:00:11;10.00;;;7.03;;
13343;SDS011;6741;48.964;9.406;2023-04-25T12:02:40;8.63;;;7.20;;
13343;SDS011;6741;48.964;9.406;2023-04-25T12:05:08;8.40;;;6.70;;
13343;SDS011;6741;48.964;9.406;2023-04-25T12:07:35;6.13;;;5.57;;
13343;SDS011;6741;48.964;9.406;2023-04-25T12:10:07;7.43;;;5.70;;
13343;SDS011;6741;48.964;9.406;2023-04-25T12:12:36;6.20;;;5.57;;
13343;SDS011;6741;48.964;9.406;2023-04-25T12:15:12;7.07;;;6.37;;
13343;SDS011;6741;48.964;9.406;2023-04-25T12:17:44;7.03;;;6.23;;
13343;SDS011;6741;48.964;9.406;2023-04-25T12:20:12;5.87;;;5.37;;
13343;SDS011;6741;48.964;9.406;2023-04-25T12:22:41;6.20;;;5.60;;
13343;SDS011;6741;48.964;9.406;2023-04-25T12:25:10;6.03;;;5.43;;
13343;SDS011;6741;48.964;9.406;2023-04-25T12:27:39;6.53;;;5.83;;
13343;SDS011;6741;48.964;9.406;2023-04-25T12:30:07;7.43;;;6.63;;
13343;SDS011;6741;48.964;9.406;2023-04-25T12:32:37;7.07;;;6.37;;
13343;SDS011;6741;48.964;9.406;2023-04-25T12:35:04;7.93;;;6.10;;
13343;SDS011;6741;48.964;9.406;2023-04-25T12:37:32;6.43;;;5.83;;
13343;SDS011;6741;48.964;9.406;2023-04-25T12:39:58;7.30;;;6.60;;
13343;SDS011;6741;48.964;9.406;2023-04-25T12:42:25;7.20;;;6.50;;
13343;SDS011;6741;48.964;9.406;2023-04-25T12:44:52;7.87;;;7.07;;
13343;SDS011;6741;48.964;9.406;2023-04-25T12:47:19;8.10;;;7.10;;
13343;SDS011;6741;48.964;9.406;2023-04-25T12:49:48;8.10;;;7.20;;
13343;SDS011;6741;48.964;9.406;2023-04-25T12:52:15;8.27;;;7.47;;
13343;SDS011;6741;48.964;9.406;2023-04-25T12:54:41;7.73;;;6.97;;
13343;SDS011;6741;48.964;9.406;2023-04-25T12:57:08;8.30;;;7.40;;
13343;SDS011;6741;48.964;9.406;2023-04-25T12:59:36;10.33;;;7.00;;
13343;SDS011;6741;48.964;9.406;2023-04-25T13:02:03;7.63;;;6.93;;
13343;SDS011;6741;48.964;9.406;2023-04-25T13:04:31;7.73;;;7.00;;
13343;SDS011;6741;48.964;9.406;2023-04-25T13:06:59;8.33;;;7.43;;
13343;SDS011;6741;48.964;9.406;2023-04-25T13:09:26;7.67;;;6.87;;
13343;SDS011;6741;48.964;9.406;2023-04-25T13:11:53;8.73;;;7.00;;
13343;SDS011;6741;48.964;9.406;2023-04-25T13:14:20;8.90;;;7.13;;
13343;SDS011;6741;48.964;9.406;2023-04-25T13:16:47;9.70;;;7.33;;
13343;SDS011;6741;48.964;9.406;2023-04-25T13:19:14;9.20;;;6.73;;
13343;SDS011;6741;48.964;9.406;2023-04-25T13:21:42;8.37;;;7.50;;
13343;SDS011;6741;48.964;9.406;2023-04-25T13:24:10;8.20;;;7.37;;
13343;SDS011;6741;48.964;9.406;2023-04-25T13:26:37;10.03;;;8.70;;
13343;SDS011;6741;48.964;9.406;2023-04-25T13:29:04;8.37;;;7.47;;
13343;SDS011;6741;48.964;9.406;2023-04-25T13:31:31;8.63;;;7.40;;
13343;SDS011;6741;48.964;9.406;2023-04-25T13:33:58;11.57;;;8.00;;
13343;SDS011;6741;48.964;9.406;2023-04-25T13:36:25;12.03;;;8.33;;
13343;SDS011;6741;48.964;9.406;2023-04-25T13:38:52;8.93;;;8.03;;
13343;SDS011;6741;48.964;9.406;2023-04-25T13:41:21;8.60;;;7.70;;
13343;SDS011;6741;48.964;9.406;2023-04-25T13:43:48;13.37;;;10.27;;
13343;SDS011;6741;48.964;9.406;2023-04-25T13:46:15;11.80;;;10.57;;
13343;SDS011;6741;48.964;9.406;2023-04-25T13:48:42;14.13;;;11.50;;
13343;SDS011;6741;48.964;9.406;2023-04-25T13:51:14;12.73;;;11.43;;
13343;SDS011;6741;48.964;9.406;2023-04-25T13:53:42;15.43;;;11.73;;
13343;SDS011;6741;48.964;9.406;2023-04-25T13:56:10;15.93;;;13.33;;
13343;SDS011;6741;48.964;9.406;2023-04-25T13:58:39;17.83;;;11.07;;
13343;SDS011;6741;48.964;9.406;2023-04-25T14:01:06;13.37;;;11.93;;
13343;SDS011;6741;48.964;9.406;2023-04-25T14:03:33;20.50;;;13.07;;
13343;SDS011;6741;48.964;9.406;2023-04-25T14:06:00;14.03;;;11.50;;
13343;SDS011;6741;48.964;9.406;2023-04-25T14:08:27;17.73;;;12.37;;
13343;SDS011;6741;48.964;9.406;2023-04-25T14:10:55;13.00;;;10.00;;
13343;SDS011;6741;48.964;9.406;2023-04-25T14:13:22;14.60;;;10.17;;
13343;SDS011;6741;48.964;9.406;2023-04-25T14:15:51;12.73;;;10.13;;
13343;SDS011;6741;48.964;9.406;2023-04-25T14:18:18;15.27;;;11.63;;
13343;SDS011;6741;48.964;9.406;2023-04-25T14:20:45;13.13;;;10.13;;
13343;SDS011;6741;48.964;9.406;2023-04-25T14:23:12;11.77;;;8.70;;
13343;SDS011;6741;48.964;9.406;2023-04-25T14:25:40;9.73;;;8.73;;
13343;SDS011;6741;48.964;9.406;2023-04-25T14:28:08;9.97;;;8.97;;
13343;SDS011;6741;48.964;9.406;2023-04-25T14:30:36;10.57;;;9.30;;
13343;SDS011;6741;48.964;9.406;2023-04-25T14:33:04;9.50;;;8.50;;
13343;SDS011;6741;48.964;9.406;2023-04-25T14:35:32;10.90;;;9.40;;
13343;SDS011;6741;48.964;9.406;2023-04-25T14:37:59;14.17;;;9.97;;
13343;SDS011;6741;48.964;9.406;2023-04-25T14:40:26;9.23;;;8.33;;
13343;SDS011;6741;48.964;9.406;2023-04-25T14:42:54;10.93;;;9.07;;
13343;SDS011;6741;48.964;9.406;2023-04-25T14:45:24;9.93;;;8.87;;
13343;SDS011;6741;48.964;9.406;2023-04-25T14:47:51;12.30;;;9.70;;
13343;SDS011;6741;48.964;9.406;2023-04-25T14:50:19;10.90;;;9.80;;
13343;SDS011;6741;48.964;9.406;2023-04-25T14:52:46;12.40;;;9.90;;
13343;SDS011;6741;48.964;9.406;2023-04-25T14:55:13;12.47;;;9.20;;
13343;SDS011;6741;48.964;9.406;2023-04-25T14:57:41;10.90;;;9.37;;
13343;SDS011;6741;48.964;9.406;2023-04-25T15:00:09;13.37;;;10.13;;
13343;SDS011;6741;48.964;9.406;2023-04-25T15:02:40;12.27;;;9.17;;